createdAt,value
2022-11-04T00:01:40.566Z,12.55
2022-11-04T00:04:09.122Z,13.50
2022-11-04T00:06:37.808Z,10.52
2022-11-04T00:09:10.053Z,11.77
2022-11-04T00:11:55.889Z,14.85
2022-11-04T00:14:23.929Z,10.68
2022-11-04T00:17:09.731Z,10.93
2022-11-04T00:19:51.428Z,10.80
2022-11-04T00:22:36.435Z,11.45
2022-11-04T00:25:23.694Z,11.95
2022-11-04T00:28:09.304Z,12.25
2022-11-04T00:30:37.604Z,10.93
2022-11-04T00:33:23.038Z,10.25
2022-11-04T00:35:51.708Z,11.00
2022-11-04T00:38:19.832Z,10.52
2022-11-04T00:40:49.294Z,11.85
2022-11-04T00:43:17.195Z,10.73
2022-11-04T00:45:45.340Z,11.07
2022-11-04T00:48:13.213Z,10.55
2022-11-04T00:50:41.648Z,10.93
2022-11-04T00:53:09.797Z,10.75
2022-11-04T00:55:37.919Z,10.05
2022-11-04T00:58:07.221Z,11.15
2022-11-04T01:00:35.133Z,10.68
2022-11-04T01:03:02.982Z,10.25
2022-11-04T01:05:30.834Z,10.90
2022-11-04T01:07:58.934Z,11.15
2022-11-04T01:10:26.860Z,11.45
2022-11-04T01:12:54.988Z,10.80
2022-11-04T01:15:24.966Z,9.73
2022-11-04T01:17:53.071Z,11.40
2022-11-04T01:20:20.930Z,11.02
2022-11-04T01:22:48.795Z,12.25
2022-11-04T01:25:16.735Z,9.35
2022-11-04T01:27:44.655Z,10.50
2022-11-04T01:30:13.553Z,10.05
2022-11-04T01:32:42.851Z,10.88
2022-11-04T01:35:11.301Z,10.55
2022-11-04T01:37:39.166Z,10.30
2022-11-04T01:40:08.312Z,10.48
2022-11-04T01:42:36.203Z,11.10
2022-11-04T01:45:04.134Z,11.10
2022-11-04T01:47:37.586Z,11.63
2022-11-04T01:50:12.402Z,10.88
2022-11-04T01:52:46.839Z,11.02
2022-11-04T01:55:20.352Z,13.32
2022-11-04T01:57:51.086Z,12.88
2022-11-04T02:00:20.056Z,11.93
2022-11-04T02:02:55.410Z,13.80
2022-11-04T02:05:24.741Z,12.57
2022-11-04T02:07:58.113Z,13.25
2022-11-04T02:10:29.101Z,13.77
2022-11-04T02:12:57.594Z,14.10
2022-11-04T02:15:36.233Z,13.23
2022-11-04T02:18:30.841Z,13.85
2022-11-04T02:21:22.669Z,14.80
2022-11-04T02:24:22.413Z,12.40
2022-11-04T02:27:20.422Z,12.18
2022-11-04T02:30:04.186Z,10.80
2022-11-04T02:33:05.001Z,11.02
2022-11-04T02:35:42.308Z,9.13
2022-11-04T02:38:16.813Z,8.50
2022-11-04T02:40:52.146Z,8.32
2022-11-04T02:43:26.906Z,8.27
2022-11-04T02:46:04.409Z,8.50
2022-11-04T02:48:39.910Z,7.85
2022-11-04T02:51:15.375Z,8.10
2022-11-04T02:53:48.289Z,8.50
2022-11-04T02:56:20.512Z,8.23
2022-11-04T02:58:56.023Z,8.95
2022-11-04T03:01:30.512Z,9.18
2022-11-04T03:04:04.104Z,9.30
2022-11-04T03:06:34.020Z,9.82
2022-11-04T03:09:03.756Z,10.70
2022-11-04T03:11:32.828Z,10.13
2022-11-04T03:14:06.706Z,11.15
2022-11-04T03:16:39.024Z,9.20
2022-11-04T03:19:15.206Z,16.15
2022-11-04T03:21:49.235Z,8.98
2022-11-04T03:24:17.581Z,9.25
2022-11-04T03:26:50.798Z,7.80
2022-11-04T03:29:27.984Z,18.25
2022-11-04T03:32:07.030Z,8.43
2022-11-04T03:34:35.434Z,8.18
2022-11-04T03:37:03.583Z,9.07
2022-11-04T03:39:31.890Z,7.90
2022-11-04T03:42:20.369Z,11.38
2022-11-04T03:44:50.665Z,7.97
2022-11-04T03:47:21.934Z,10.90
2022-11-04T03:49:50.709Z,6.63
2022-11-04T03:52:19.944Z,10.30
2022-11-04T03:54:48.709Z,13.98
2022-11-04T03:57:41.922Z,7.90
2022-11-04T04:00:13.489Z,8.48
2022-11-04T04:03:00.512Z,8.63
2022-11-04T04:05:31.033Z,8.82
2022-11-04T04:08:11.948Z,9.40
2022-11-04T04:10:46.626Z,8.50
2022-11-04T04:13:29.999Z,9.25
2022-11-04T04:16:03.112Z,9.82
2022-11-04T04:18:36.958Z,8.75
2022-11-04T04:21:08.703Z,8.20
2022-11-04T04:23:55.847Z,9.20
2022-11-04T04:26:43.411Z,7.47
2022-11-04T04:29:12.760Z,7.60
2022-11-04T04:31:51.313Z,6.53
2022-11-04T04:34:23.914Z,8.35
2022-11-04T04:36:57.269Z,8.20
2022-11-04T04:39:48.877Z,8.30
2022-11-04T04:42:34.008Z,8.52
2022-11-04T04:45:07.230Z,8.77
2022-11-04T04:47:42.243Z,7.63
2022-11-04T04:50:12.846Z,8.75
2022-11-04T04:52:43.365Z,22.30
2022-11-04T04:55:12.484Z,13.50
2022-11-04T04:57:40.518Z,8.35
2022-11-04T05:00:10.849Z,9.52
2022-11-04T05:05:08.053Z,10.00
2022-11-04T05:07:37.395Z,9.67
2022-11-04T05:10:05.772Z,9.80
2022-11-04T05:12:49.538Z,10.70
2022-11-04T05:15:17.993Z,10.80
2022-11-04T05:17:45.877Z,10.60
2022-11-04T05:20:14.322Z,9.85
2022-11-04T05:22:43.572Z,10.07
2022-11-04T05:25:11.457Z,9.63
2022-11-04T05:27:40.135Z,9.65
2022-11-04T05:30:08.968Z,9.70
2022-11-04T05:32:36.824Z,9.57
2022-11-04T05:35:05.820Z,10.30
2022-11-04T05:37:33.873Z,9.63
2022-11-04T05:40:03.165Z,8.20
2022-11-04T05:42:32.990Z,6.95
2022-11-04T05:45:01.018Z,6.70
2022-11-04T05:47:28.890Z,7.30
2022-11-04T05:49:56.772Z,6.93
2022-11-04T05:52:24.620Z,6.97
2022-11-04T05:54:52.777Z,6.50
2022-11-04T05:57:22.238Z,6.70
2022-11-04T05:59:50.138Z,6.70
2022-11-04T06:02:18.065Z,6.35
2022-11-04T06:04:46.043Z,6.38
2022-11-04T06:07:13.943Z,14.18
2022-11-04T06:09:41.908Z,7.18
2022-11-04T06:12:11.536Z,6.43
2022-11-04T06:14:40.961Z,7.47
2022-11-04T06:17:09.628Z,6.10
2022-11-04T06:19:37.524Z,7.18
2022-11-04T06:22:06.474Z,7.03
2022-11-04T06:24:34.379Z,6.80
2022-11-04T06:27:02.501Z,6.90
2022-11-04T06:29:30.437Z,7.97
2022-11-04T06:31:59.733Z,8.05
2022-11-04T06:34:27.642Z,8.68
2022-11-04T06:36:55.779Z,8.95
2022-11-04T06:39:23.751Z,10.25
2022-11-04T06:41:51.953Z,10.25
2022-11-04T06:44:20.898Z,11.05
2022-11-04T06:46:48.826Z,10.43
2022-11-04T06:49:20.713Z,11.50
2022-11-04T06:51:49.165Z,11.43
2022-11-04T06:54:17.796Z,11.27
2022-11-04T06:56:46.656Z,10.85
2022-11-04T06:59:17.462Z,10.38
2022-11-04T07:01:46.236Z,9.02
2022-11-04T07:04:14.269Z,8.90
2022-11-04T07:06:45.169Z,10.25
2022-11-04T07:09:14.716Z,8.45
2022-11-04T07:11:44.090Z,5.65
2022-11-04T07:14:12.750Z,9.37
2022-11-04T07:16:40.934Z,11.45
2022-11-04T07:19:08.786Z,12.02
2022-11-04T07:21:36.785Z,11.63
2022-11-04T07:24:07.315Z,13.00
2022-11-04T07:26:35.729Z,11.43
2022-11-04T07:29:03.615Z,12.90
2022-11-04T07:31:31.464Z,13.63
2022-11-04T07:33:59.424Z,13.93
2022-11-04T07:36:27.272Z,14.13
2022-11-04T07:38:55.979Z,14.02
2022-11-04T07:41:25.316Z,13.13
2022-11-04T07:43:53.600Z,16.30
2022-11-04T07:46:22.552Z,14.93
2022-11-04T07:48:50.414Z,13.95
2022-11-04T07:51:21.839Z,13.98
2022-11-04T07:53:50.694Z,14.35
2022-11-04T07:56:19.185Z,15.00
2022-11-04T07:58:48.430Z,12.48
2022-11-04T08:01:19.222Z,12.75
2022-11-04T08:03:47.245Z,13.43
2022-11-04T08:06:16.314Z,13.07
2022-11-04T08:08:44.736Z,12.68
2022-11-04T08:11:17.704Z,12.18
2022-11-04T08:13:48.688Z,12.40
2022-11-04T08:16:18.997Z,14.63
2022-11-04T08:21:15.717Z,12.27
2022-11-04T08:23:44.111Z,11.90
2022-11-04T08:26:16.098Z,11.90
2022-11-04T08:28:44.514Z,11.73
2022-11-04T08:31:16.746Z,11.40
2022-11-04T08:33:45.740Z,10.32
2022-11-04T08:36:16.726Z,11.63
2022-11-04T08:38:45.223Z,10.18
2022-11-04T08:41:15.125Z,10.10
2022-11-04T08:43:43.341Z,9.60
2022-11-04T08:46:14.044Z,9.45
2022-11-04T08:48:43.183Z,8.63
2022-11-04T08:51:15.164Z,7.95
2022-11-04T08:53:43.035Z,7.93
2022-11-04T08:56:13.104Z,7.13
2022-11-04T08:58:41.200Z,6.97
2022-11-04T09:01:10.910Z,6.25
2022-11-04T09:03:42.153Z,6.13
2022-11-04T09:06:15.884Z,6.10
2022-11-04T09:08:44.752Z,6.15
2022-11-04T09:11:15.213Z,6.00
2022-11-04T09:16:13.072Z,6.03
2022-11-04T09:18:42.787Z,5.30
2022-11-04T09:21:12.188Z,5.90
2022-11-04T09:23:40.437Z,4.53
2022-11-04T09:26:11.432Z,4.95
2022-11-04T09:28:40.449Z,4.55
2022-11-04T09:31:09.302Z,3.85
2022-11-04T09:33:37.290Z,3.67
2022-11-04T09:36:07.997Z,5.00
2022-11-04T09:38:35.939Z,3.88
2022-11-04T09:41:10.697Z,3.13
2022-11-04T09:43:51.858Z,4.20
2022-11-04T09:46:20.938Z,3.83
2022-11-04T09:48:51.222Z,3.35
2022-11-04T09:51:47.949Z,4.25
2022-11-04T09:54:17.212Z,3.55
2022-11-04T09:56:49.911Z,3.78
2022-11-04T09:59:24.551Z,2.75
2022-11-04T10:02:03.587Z,3.33
2022-11-04T10:04:45.695Z,3.50
2022-11-04T10:07:33.524Z,2.90
2022-11-04T10:10:13.913Z,3.35
2022-11-04T10:13:02.054Z,3.40
2022-11-04T10:16:04.445Z,3.25
2022-11-04T10:18:55.866Z,3.33
2022-11-04T10:21:36.342Z,2.92
2022-11-04T10:26:46.618Z,2.60
2022-11-04T10:29:17.739Z,3.15
2022-11-04T10:31:48.599Z,2.88
2022-11-04T10:34:28.473Z,2.35
2022-11-04T10:36:58.519Z,2.85
2022-11-04T10:39:31.861Z,2.55
2022-11-04T10:41:59.816Z,2.58
2022-11-04T10:44:31.331Z,2.03
2022-11-04T10:47:12.565Z,2.85
2022-11-04T10:50:26.362Z,2.10
2022-11-04T10:52:44.694Z,2.53
2022-11-04T10:55:37.520Z,2.42
2022-11-04T10:58:16.183Z,2.22
2022-11-04T11:00:44.319Z,2.15
2022-11-04T11:03:27.908Z,1.65
2022-11-04T11:06:10.910Z,1.88
2022-11-04T11:08:39.133Z,1.90
2022-11-04T11:11:08.655Z,1.98
2022-11-04T11:13:38.516Z,2.13
2022-11-04T11:16:10.401Z,1.75
2022-11-04T11:18:39.599Z,2.10
2022-11-04T11:21:12.047Z,2.10
2022-11-04T11:23:43.117Z,2.10
2022-11-04T11:26:15.629Z,2.05
2022-11-04T11:28:55.755Z,1.92
2022-11-04T11:31:27.417Z,2.40
2022-11-04T11:33:58.095Z,2.17
2022-11-04T11:36:27.564Z,1.70
2022-11-04T11:38:59.282Z,2.00
2022-11-04T11:41:32.547Z,1.33
2022-11-04T11:44:03.936Z,1.98
2022-11-04T11:46:33.748Z,1.42
2022-11-04T11:49:03.422Z,2.00
2022-11-04T11:51:37.238Z,1.92
2022-11-04T11:54:33.462Z,1.45
2022-11-04T11:57:14.212Z,2.25
2022-11-04T12:02:45.756Z,1.80
2022-11-04T12:11:20.326Z,1.83
2022-11-04T12:13:53.490Z,2.22
2022-11-04T12:16:34.609Z,2.20
2022-11-04T12:19:17.212Z,1.73
2022-11-04T12:21:51.521Z,1.70
2022-11-04T12:24:32.684Z,1.75
2022-11-04T12:27:12.983Z,2.03
2022-11-04T12:29:57.454Z,1.80
2022-11-04T12:32:35.607Z,1.40
2022-11-04T12:35:21.114Z,1.50
2022-11-04T12:38:03.406Z,1.60
2022-11-04T12:40:41.615Z,1.60
2022-11-04T12:43:25.080Z,1.35
2022-11-04T12:46:10.183Z,1.60
2022-11-04T12:48:57.354Z,1.95
2022-11-04T12:51:38.809Z,1.75
2022-11-04T12:54:26.337Z,1.90
2022-11-04T12:57:07.659Z,1.52
2022-11-04T13:00:11.523Z,2.17
2022-11-04T13:02:46.090Z,1.80
2022-11-04T13:05:37.619Z,1.48
2022-11-04T13:08:14.803Z,1.63
2022-11-04T13:10:53.106Z,1.40
2022-11-04T13:13:25.782Z,1.83
2022-11-04T13:15:59.043Z,1.35
2022-11-04T13:18:33.906Z,1.83
2022-11-04T13:21:07.139Z,1.48
2022-11-04T13:23:41.144Z,1.83
2022-11-04T13:26:15.977Z,1.65
2022-11-04T13:28:45.178Z,1.70
2022-11-04T13:31:23.749Z,1.92
2022-11-04T13:33:59.972Z,2.05
2022-11-04T13:36:38.099Z,1.63
2022-11-04T13:39:14.617Z,2.13
2022-11-04T13:42:03.490Z,2.28
2022-11-04T13:44:37.070Z,1.83
2022-11-04T13:47:19.210Z,1.85
2022-11-04T13:49:53.948Z,2.00
2022-11-04T13:52:23.076Z,2.13
2022-11-04T13:54:59.883Z,1.77
2022-11-04T13:57:29.688Z,1.70
2022-11-04T14:00:19.982Z,2.17
2022-11-04T14:02:49.275Z,2.00
2022-11-04T14:05:56.585Z,2.75
2022-11-04T14:08:28.948Z,1.77
2022-11-04T14:11:14.795Z,2.05
2022-11-04T14:14:04.378Z,1.98
2022-11-04T14:16:43.921Z,1.80
2022-11-04T14:19:57.228Z,2.50
2022-11-04T14:22:34.519Z,1.42
2022-11-04T14:25:23.480Z,2.20
2022-11-04T14:27:52.860Z,2.20
2022-11-04T14:30:46.502Z,1.92
2022-11-04T14:33:42.566Z,2.03
2022-11-04T14:36:35.676Z,1.90
2022-11-04T14:39:08.449Z,3.85
2022-11-04T14:42:00.394Z,4.03
2022-11-04T14:44:34.342Z,4.65
2022-11-04T14:47:09.413Z,4.10
2022-11-04T14:49:45.362Z,3.38
2022-11-04T14:52:22.084Z,3.03
2022-11-04T14:54:52.264Z,2.85
2022-11-04T14:57:23.409Z,3.83
2022-11-04T14:59:52.323Z,5.15
2022-11-04T15:02:23.914Z,5.47
2022-11-04T15:04:57.574Z,6.25
2022-11-04T15:07:33.787Z,8.43
2022-11-04T15:10:02.309Z,7.38
2022-11-04T15:12:49.147Z,5.03
2022-11-04T15:15:29.301Z,3.30
2022-11-04T15:18:00.848Z,1.90
2022-11-04T15:20:31.356Z,3.35
2022-11-04T15:23:02.235Z,3.30
2022-11-04T15:25:30.515Z,3.92
2022-11-04T15:27:59.914Z,3.90
2022-11-04T15:30:29.341Z,4.38
2022-11-04T15:32:58.949Z,3.73
2022-11-04T15:35:27.947Z,4.93
2022-11-04T15:37:56.828Z,4.53
2022-11-04T15:40:27.799Z,3.47
2022-11-04T15:42:55.530Z,3.75
2022-11-04T15:45:36.074Z,3.33
2022-11-04T15:48:26.878Z,4.60
2022-11-04T15:51:12.479Z,4.60
2022-11-04T15:53:51.101Z,3.10
2022-11-04T15:56:22.406Z,2.80
2022-11-04T15:58:51.144Z,3.42
2022-11-04T16:01:21.059Z,2.42
2022-11-04T16:03:52.298Z,3.10
2022-11-04T16:06:34.882Z,2.40
2022-11-04T16:09:05.455Z,2.15
2022-11-04T16:11:33.422Z,2.83
2022-11-04T16:14:23.642Z,2.33
2022-11-04T16:16:55.000Z,2.20
2022-11-04T16:19:26.531Z,2.70
2022-11-04T16:22:01.895Z,2.58
2022-11-04T16:24:33.079Z,3.05
2022-11-04T16:27:01.582Z,2.70
2022-11-04T16:29:32.798Z,2.22
2022-11-04T16:32:18.081Z,3.13
2022-11-04T16:34:47.154Z,3.05
2022-11-04T16:37:15.157Z,2.47
2022-11-04T16:39:45.210Z,2.35
2022-11-04T16:42:17.033Z,2.58
2022-11-04T16:44:49.643Z,3.15
2022-11-04T16:47:20.105Z,2.90
2022-11-04T16:49:48.302Z,2.60
2022-11-04T16:52:22.913Z,2.70
2022-11-04T16:54:50.793Z,3.53
2022-11-04T16:57:19.995Z,2.85
2022-11-04T16:59:47.867Z,3.00
2022-11-04T17:02:27.957Z,3.05
2022-11-04T17:04:56.418Z,2.97
2022-11-04T17:07:40.702Z,3.40
2022-11-04T17:10:17.444Z,3.33
2022-11-04T17:12:45.897Z,2.95
2022-11-04T17:15:14.690Z,3.13
2022-11-04T17:17:44.210Z,3.08
2022-11-04T17:20:15.224Z,3.37
2022-11-04T17:22:43.440Z,3.88
2022-11-04T17:25:17.631Z,2.88
2022-11-04T17:27:45.655Z,3.45
2022-11-04T17:30:15.117Z,3.00
2022-11-04T17:32:45.394Z,3.50
2022-11-04T17:35:14.191Z,3.40
2022-11-04T17:37:42.220Z,3.45
2022-11-04T17:40:15.006Z,2.97
2022-11-04T17:43:00.315Z,2.90
2022-11-04T17:45:28.606Z,3.47
2022-11-04T17:47:57.866Z,3.90
2022-11-04T17:50:25.963Z,3.55
2022-11-04T17:52:53.861Z,4.38
2022-11-04T17:55:27.381Z,8.40
2022-11-04T17:57:55.757Z,9.15
2022-11-04T18:00:29.635Z,11.52
2022-11-04T18:02:59.196Z,10.73
2022-11-04T18:05:27.100Z,9.98
2022-11-04T18:07:56.527Z,7.30
2022-11-04T18:10:24.646Z,7.43
2022-11-04T18:12:51.524Z,6.53
2022-11-04T18:15:19.426Z,4.15
2022-11-04T18:17:50.012Z,4.97
2022-11-04T18:20:19.432Z,4.45
2022-11-04T18:22:47.430Z,4.23
2022-11-04T18:25:15.334Z,4.82
2022-11-04T18:27:43.196Z,3.90
2022-11-04T18:30:12.106Z,4.00
2022-11-04T18:32:39.975Z,3.90
2022-11-04T18:35:08.532Z,3.53
2022-11-04T18:37:46.708Z,3.95
2022-11-04T18:40:15.437Z,3.83
2022-11-04T18:42:43.341Z,2.95
2022-11-04T18:45:11.799Z,3.97
2022-11-04T18:47:39.724Z,4.50
2022-11-04T18:50:11.489Z,3.90
2022-11-04T18:52:40.887Z,3.33
2022-11-04T18:55:11.847Z,3.73
2022-11-04T18:57:39.718Z,3.72
2022-11-04T19:00:14.265Z,3.60
2022-11-04T19:02:44.773Z,3.83
2022-11-04T19:05:12.880Z,3.50
2022-11-04T19:07:42.429Z,3.67
2022-11-04T19:10:11.078Z,3.97
2022-11-04T19:12:56.441Z,3.50
2022-11-04T19:15:24.615Z,4.35
2022-11-04T19:17:52.517Z,4.03
2022-11-04T19:20:20.694Z,3.33
2022-11-04T19:22:49.938Z,3.42
2022-11-04T19:25:18.223Z,3.25
2022-11-04T19:28:05.168Z,3.13
2022-11-04T19:30:36.371Z,3.08
2022-11-04T19:33:04.268Z,3.17
2022-11-04T19:35:32.148Z,2.85
2022-11-04T19:38:02.451Z,3.22
2022-11-04T19:43:13.183Z,3.28
2022-11-04T19:45:43.542Z,2.35
2022-11-04T19:50:41.435Z,2.60
2022-11-04T19:53:11.354Z,3.03
2022-11-04T19:55:39.544Z,2.58
2022-11-04T19:58:08.250Z,2.65
2022-11-04T20:00:36.433Z,2.67
2022-11-04T20:03:04.352Z,2.78
2022-11-04T20:05:36.965Z,2.28
2022-11-04T20:08:06.329Z,2.55
2022-11-04T20:10:39.365Z,3.03
2022-11-04T20:13:25.473Z,2.72
2022-11-04T20:15:53.324Z,3.13
2022-11-04T20:18:22.510Z,2.88
2022-11-04T20:20:50.614Z,3.80
2022-11-04T20:23:18.553Z,3.38
2022-11-04T20:25:49.264Z,3.20
2022-11-04T20:28:17.141Z,4.00
2022-11-04T20:30:45.007Z,2.88
2022-11-04T20:33:13.025Z,4.70
2022-11-04T20:35:41.913Z,3.90
2022-11-04T20:38:10.297Z,3.28
2022-11-04T20:40:38.636Z,4.68
2022-11-04T20:43:07.905Z,3.90
2022-11-04T20:45:35.866Z,3.47
2022-11-04T20:48:03.668Z,2.60
2022-11-04T20:50:31.626Z,3.20
2022-11-04T20:52:59.492Z,3.67
2022-11-04T20:55:28.239Z,4.55
2022-11-04T20:57:56.378Z,5.70
2022-11-04T21:00:25.664Z,5.78
2022-11-04T21:02:53.622Z,7.15
2022-11-04T21:05:21.706Z,8.70
2022-11-04T21:07:49.617Z,15.88
2022-11-04T21:10:17.767Z,8.02
2022-11-04T21:12:45.629Z,13.75
2022-11-04T21:15:34.565Z,18.55
2022-11-04T21:18:03.770Z,18.50
2022-11-04T21:20:31.638Z,14.52
2022-11-04T21:22:59.502Z,9.23
2022-11-04T21:25:27.603Z,8.63
2022-11-04T21:27:56.336Z,8.75
2022-11-04T21:30:26.659Z,4.85
2022-11-04T21:32:58.289Z,3.53
2022-11-04T21:35:27.599Z,3.47
2022-11-04T21:37:55.562Z,3.17
2022-11-04T21:40:23.526Z,2.90
2022-11-04T21:42:51.495Z,2.60
2022-11-04T21:45:19.365Z,3.40
2022-11-04T21:47:47.238Z,5.10
2022-11-04T21:50:18.458Z,4.00
2022-11-04T21:52:48.233Z,3.53
2022-11-04T21:55:16.089Z,3.22
2022-11-04T21:57:47.012Z,3.28
2022-11-04T22:00:15.809Z,2.42
2022-11-04T22:02:52.005Z,2.72
2022-11-04T22:05:21.038Z,2.38
2022-11-04T22:08:09.474Z,2.60
2022-11-04T22:10:37.389Z,2.30
2022-11-04T22:13:05.432Z,2.45
2022-11-04T22:15:50.974Z,3.00
2022-11-04T22:18:18.835Z,2.65
2022-11-04T22:20:46.739Z,3.00
2022-11-04T22:23:16.207Z,3.00
2022-11-04T22:25:50.155Z,2.83
2022-11-04T22:28:19.312Z,3.35
2022-11-04T22:30:47.386Z,2.97
2022-11-04T22:33:18.435Z,2.60
2022-11-04T22:35:47.017Z,2.85
2022-11-04T22:38:19.086Z,3.40
2022-11-04T22:40:55.044Z,2.53
2022-11-04T22:43:23.059Z,3.15
2022-11-04T22:45:50.939Z,3.05
2022-11-04T22:48:19.154Z,2.90
2022-11-04T22:50:47.051Z,2.17
2022-11-04T22:53:17.651Z,2.50
2022-11-04T22:55:49.709Z,3.40
2022-11-04T22:58:20.700Z,2.90
2022-11-04T23:00:55.487Z,2.65
2022-11-04T23:03:23.551Z,2.72
2022-11-04T23:05:55.705Z,2.88
2022-11-04T23:08:24.114Z,2.58
2022-11-04T23:11:14.530Z,3.42
2022-11-04T23:16:47.162Z,2.70
2022-11-04T23:19:15.022Z,2.55
2022-11-04T23:22:00.598Z,3.72
2022-11-04T23:24:46.034Z,3.28
2022-11-04T23:27:35.413Z,3.28
2022-11-04T23:30:21.139Z,2.95
2022-11-04T23:32:49.276Z,3.40
2022-11-04T23:35:35.230Z,2.95
2022-11-04T23:38:03.573Z,2.92
2022-11-04T23:40:33.177Z,3.08
2022-11-04T23:43:01.420Z,3.38
2022-11-04T23:46:00.960Z,3.60
2022-11-04T23:48:46.485Z,3.30
2022-11-04T23:51:31.706Z,3.17
2022-11-04T23:54:17.124Z,4.55
2022-11-04T23:57:02.667Z,3.00
2022-11-04T23:59:49.399Z,3.28
